Time;durP1;ratioP1;P1;durP2;ratioP2;P2;SDS_P1;SDS_P2;PMS_P1;PMS_P2;Temp;Humidity;BMP_temperature;BMP_pressure;BME280_temperature;BME280_humidity;BME280_pressure;Samples;Min_cycle;Max_cycle;Signal;HPM_P1;HPM_P2
2021/06/15 00:00:05;;;;;;;10.25;6.57;;;;;;;;;;1497348;39;20049;-58
2021/06/15 00:01:09;;;;;;;9.60;6.38;;;;;;;;;;1497518;39;20035;-59
2021/06/15 00:02:10;;;;;;;11.13;6.57;;;;;;;;;;1497099;39;20023;-59
2021/06/15 00:03:12;;;;;;;11.43;6.53;;;;;;;;;;1497206;39;20039;-58
2021/06/15 00:04:17;;;;;;;11.90;6.53;;;;;;;;;;1497388;39;20038;-58
2021/06/15 00:05:19;;;;;;;10.52;6.88;;;;;;;;;;1497352;39;20027;-59
2021/06/15 00:06:20;;;;;;;9.52;6.07;;;;;;;;;;1497136;39;20087;-59
2021/06/15 00:07:22;;;;;;;10.35;6.15;;;;;;;;;;1497249;39;20032;-58
2021/06/15 00:08:22;;;;;;;9.15;6.43;;;;;;;;;;1497327;39;20103;-59
2021/06/15 00:09:24;;;;;;;11.70;6.72;;;;;;;;;;1497463;39;20027;-58
2021/06/15 00:10:26;;;;;;;10.70;5.95;;;;;;;;;;1497355;39;20028;-59
2021/06/15 00:11:28;;;;;;;8.95;5.88;;;;;;;;;;1497128;39;20038;-58
2021/06/15 00:12:29;;;;;;;12.02;6.60;;;;;;;;;;1497391;39;20108;-59
2021/06/15 00:13:31;;;;;;;10.23;6.13;;;;;;;;;;1497381;39;20364;-59
2021/06/15 00:14:32;;;;;;;7.65;5.72;;;;;;;;;;1497332;39;20027;-59
2021/06/15 00:15:33;;;;;;;10.05;6.10;;;;;;;;;;1497497;39;20046;-58
2021/06/15 00:16:37;;;;;;;10.77;6.47;;;;;;;;;;1497205;39;20028;-58
2021/06/15 00:17:39;;;;;;;10.60;6.72;;;;;;;;;;1497122;39;20391;-58
2021/06/15 00:18:40;;;;;;;9.95;5.80;;;;;;;;;;1497107;39;20027;-59
2021/06/15 00:19:42;;;;;;;10.38;6.63;;;;;;;;;;1497269;39;20028;-59
2021/06/15 00:20:43;;;;;;;10.13;6.18;;;;;;;;;;1497195;39;20129;-59
2021/06/15 00:21:45;;;;;;;8.55;6.43;;;;;;;;;;1497531;39;20115;-58
2021/06/15 00:22:46;;;;;;;12.07;7.28;;;;;;;;;;1497291;39;20031;-58
2021/06/15 00:23:48;;;;;;;8.32;6.00;;;;;;;;;;1497187;39;20030;-58
2021/06/15 00:24:49;;;;;;;9.75;6.63;;;;;;;;;;1497286;39;20047;-58
2021/06/15 00:25:50;;;;;;;12.05;6.78;;;;;;;;;;1497532;39;20036;-60
2021/06/15 00:26:51;;;;;;;9.32;6.13;;;;;;;;;;1497307;39;20028;-59
2021/06/15 00:27:53;;;;;;;7.88;6.30;;;;;;;;;;1497091;39;20391;-59
2021/06/15 00:28:54;;;;;;;9.55;6.18;;;;;;;;;;1497461;39;20111;-59
2021/06/15 00:29:56;;;;;;;9.50;6.40;;;;;;;;;;1497509;39;20348;-60
2021/06/15 00:30:57;;;;;;;8.88;6.32;;;;;;;;;;1497078;39;20031;-59
2021/06/15 00:32:00;;;;;;;10.25;6.05;;;;;;;;;;1497308;39;20034;-58
2021/06/15 00:33:01;;;;;;;11.10;6.70;;;;;;;;;;1497126;39;20116;-59
2021/06/15 00:34:03;;;;;;;11.10;6.60;;;;;;;;;;1497166;39;20104;-59
2021/06/15 00:35:05;;;;;;;12.48;7.07;;;;;;;;;;1497433;39;20035;-59
2021/06/15 00:36:07;;;;;;;11.00;6.20;;;;;;;;;;1497384;39;20023;-59
2021/06/15 00:37:08;;;;;;;10.40;6.50;;;;;;;;;;1497137;39;20092;-58
2021/06/15 00:38:09;;;;;;;9.95;6.47;;;;;;;;;;1497104;39;20036;-59
2021/06/15 00:39:10;;;;;;;11.32;6.55;;;;;;;;;;1497390;39;20038;-59
2021/06/15 00:40:13;;;;;;;11.85;6.88;;;;;;;;;;1497406;39;20032;-58
2021/06/15 00:41:14;;;;;;;12.80;6.90;;;;;;;;;;1497168;39;20406;-58
2021/06/15 00:42:16;;;;;;;9.77;6.00;;;;;;;;;;1497193;39;20031;-58
2021/06/15 00:43:17;;;;;;;9.57;5.85;;;;;;;;;;1492617;39;20019;-58
2021/06/15 00:44:19;;;;;;;11.40;6.25;;;;;;;;;;1492715;39;20276;-59
2021/06/15 00:45:23;;;;;;;11.27;6.90;;;;;;;;;;1497079;39;20402;-58
2021/06/15 00:46:25;;;;;;;11.10;6.40;;;;;;;;;;1497346;39;20087;-59
2021/06/15 00:47:28;;;;;;;10.80;6.30;;;;;;;;;;1497148;39;20031;-58
2021/06/15 00:48:34;;;;;;;10.52;6.68;;;;;;;;;;1497298;39;20039;-58
2021/06/15 00:49:37;;;;;;;10.85;6.22;;;;;;;;;;1497406;39;20024;-58
2021/06/15 00:50:39;;;;;;;10.52;6.90;;;;;;;;;;1497343;39;20038;-58
2021/06/15 00:51:40;;;;;;;9.90;6.70;;;;;;;;;;1497133;39;20023;-59
2021/06/15 00:52:42;;;;;;;12.10;6.35;;;;;;;;;;1497269;39;20316;-58
2021/06/15 00:53:43;;;;;;;10.25;6.70;;;;;;;;;;1497052;39;20024;-59
2021/06/15 00:54:45;;;;;;;11.00;7.25;;;;;;;;;;1497073;39;20069;-59
2021/06/15 00:55:47;;;;;;;15.05;7.00;;;;;;;;;;1497083;39;20479;-58
2021/06/15 00:56:49;;;;;;;9.60;7.03;;;;;;;;;;1497102;39;20034;-59
2021/06/15 00:57:50;;;;;;;11.00;7.18;;;;;;;;;;1497014;39;20409;-59
2021/06/15 00:58:52;;;;;;;10.50;6.13;;;;;;;;;;1497268;39;20038;-58
2021/06/15 00:59:53;;;;;;;9.85;6.50;;;;;;;;;;1497038;39;20027;-60
2021/06/15 01:00:55;;;;;;;11.63;7.20;;;;;;;;;;1497023;39;20324;-59
2021/06/15 01:01:56;;;;;;;12.60;7.30;;;;;;;;;;1496989;39;20034;-58
2021/06/15 01:02:59;;;;;;;12.50;7.15;;;;;;;;;;1497334;39;20042;-59
2021/06/15 01:04:00;;;;;;;9.88;6.70;;;;;;;;;;1497122;39;20034;-58
2021/06/15 01:05:03;;;;;;;11.52;6.95;;;;;;;;;;1497178;39;20029;-58
2021/06/15 01:06:09;;;;;;;13.10;6.88;;;;;;;;;;1497046;39;20390;-58
2021/06/15 01:07:18;;;;;;;11.05;6.75;;;;;;;;;;1497076;39;20067;-58
2021/06/15 01:08:33;;;;;;;10.82;6.40;;;;;;;;;;1497183;39;20047;-58
2021/06/15 01:09:44;;;;;;;10.18;6.60;;;;;;;;;;1497255;39;20096;-58
2021/06/15 01:10:55;;;;;;;10.65;6.40;;;;;;;;;;1497248;39;20024;-59
2021/06/15 01:12:03;;;;;;;8.80;6.68;;;;;;;;;;1497228;39;20085;-59
2021/06/15 01:13:14;;;;;;;10.95;6.80;;;;;;;;;;1497297;39;20115;-61
2021/06/15 01:14:20;;;;;;;12.48;7.32;;;;;;;;;;1496997;39;20131;-58
2021/06/15 01:15:27;;;;;;;11.32;6.68;;;;;;;;;;1497123;39;20387;-59
2021/06/15 01:16:34;;;;;;;11.40;7.03;;;;;;;;;;1497276;39;20036;-58
2021/06/15 01:17:39;;;;;;;8.63;6.22;;;;;;;;;;1497040;39;20111;-58
2021/06/15 01:18:48;;;;;;;9.77;6.50;;;;;;;;;;1497164;39;20028;-58
2021/06/15 01:20:06;;;;;;;11.45;6.25;;;;;;;;;;1497204;39;20043;-58
2021/06/15 01:21:11;;;;;;;9.45;6.35;;;;;;;;;;1497304;39;20178;-58
2021/06/15 01:22:25;;;;;;;8.43;6.57;;;;;;;;;;1497175;39;20035;-59
2021/06/15 01:23:55;;;;;;;11.18;6.53;;;;;;;;;;1497464;39;20039;-58
2021/06/15 01:25:03;;;;;;;12.35;7.20;;;;;;;;;;1497051;39;20404;-58
2021/06/15 01:26:27;;;;;;;12.35;6.63;;;;;;;;;;1492370;39;20036;-58
2021/06/15 01:27:40;;;;;;;13.85;6.65;;;;;;;;;;1494089;39;20035;-58
2021/06/15 01:28:45;;;;;;;9.38;6.88;;;;;;;;;;1497315;39;20034;-59
2021/06/15 01:29:47;;;;;;;11.88;7.22;;;;;;;;;;1496943;39;20035;-58
2021/06/15 01:30:56;;;;;;;12.60;6.80;;;;;;;;;;1497210;39;20108;-58
2021/06/15 01:32:02;;;;;;;14.27;7.00;;;;;;;;;;1497228;39;20046;-58
2021/06/15 01:33:07;;;;;;;10.60;6.70;;;;;;;;;;1497037;39;20034;-58
2021/06/15 01:34:10;;;;;;;10.90;6.72;;;;;;;;;;1497109;39;20032;-61
2021/06/15 01:35:13;;;;;;;12.70;6.63;;;;;;;;;;1496988;39;20038;-58
2021/06/15 01:36:18;;;;;;;11.10;6.60;;;;;;;;;;1496934;39;20401;-61
2021/06/15 01:37:23;;;;;;;10.88;6.88;;;;;;;;;;1496965;39;20421;-59
2021/06/15 01:38:32;;;;;;;10.85;6.75;;;;;;;;;;1497189;39;20111;-58
2021/06/15 01:39:39;;;;;;;11.35;6.93;;;;;;;;;;1497113;39;20081;-59
2021/06/15 01:40:44;;;;;;;11.02;7.22;;;;;;;;;;1497031;39;20038;-59
2021/06/15 01:41:51;;;;;;;9.77;6.35;;;;;;;;;;1497293;39;20030;-59
2021/06/15 01:42:58;;;;;;;9.52;6.65;;;;;;;;;;1497015;39;20032;-59
2021/06/15 01:44:04;;;;;;;11.45;6.85;;;;;;;;;;1497262;39;20023;-59
2021/06/15 01:45:10;;;;;;;10.50;6.32;;;;;;;;;;1497223;39;20031;-59
2021/06/15 01:46:12;;;;;;;9.82;6.53;;;;;;;;;;1497154;39;20047;-59
2021/06/15 01:47:15;;;;;;;11.90;6.50;;;;;;;;;;1497190;39;20039;-59
2021/06/15 01:48:24;;;;;;;11.15;6.63;;;;;;;;;;1496885;39;20032;-59
2021/06/15 01:49:31;;;;;;;10.90;6.57;;;;;;;;;;1497052;39;20087;-61
2021/06/15 01:50:35;;;;;;;10.68;6.60;;;;;;;;;;1497003;39;20034;-61
2021/06/15 01:51:39;;;;;;;11.55;6.40;;;;;;;;;;1497129;39;20107;-59
2021/06/15 01:52:41;;;;;;;8.45;6.25;;;;;;;;;;1497038;39;20141;-59
2021/06/15 01:53:48;;;;;;;10.40;6.60;;;;;;;;;;1497257;39;20020;-60
2021/06/15 01:54:50;;;;;;;11.00;6.68;;;;;;;;;;1497457;39;20027;-59
2021/06/15 01:55:55;;;;;;;10.98;7.03;;;;;;;;;;1497245;39;20056;-59
2021/06/15 01:56:56;;;;;;;11.60;7.28;;;;;;;;;;1497048;39;20027;-59
2021/06/15 01:58:01;;;;;;;12.20;6.85;;;;;;;;;;1492279;39;20059;-59
2021/06/15 01:59:02;;;;;;;10.00;6.90;;;;;;;;;;1492359;39;20380;-59
2021/06/15 02:00:10;;;;;;;10.93;7.40;;;;;;;;;;1496896;39;20040;-59
2021/06/15 02:01:12;;;;;;;10.25;6.40;;;;;;;;;;1497202;39;20032;-59
2021/06/15 02:02:15;;;;;;;10.80;7.18;;;;;;;;;;1496870;39;20042;-59
2021/06/15 02:03:17;;;;;;;9.88;6.68;;;;;;;;;;1497070;39;20035;-59
2021/06/15 02:04:18;;;;;;;11.13;6.53;;;;;;;;;;1497125;39;20027;-59
2021/06/15 02:05:26;;;;;;;10.45;7.00;;;;;;;;;;1496949;39;20031;-59
2021/06/15 02:06:29;;;;;;;9.63;6.60;;;;;;;;;;1496907;39;20019;-59
2021/06/15 02:07:33;;;;;;;12.15;7.15;;;;;;;;;;1496975;39;20031;-59
2021/06/15 02:08:37;;;;;;;11.70;7.00;;;;;;;;;;1496823;39;20035;-59
2021/06/15 02:09:42;;;;;;;11.60;6.72;;;;;;;;;;1497016;39;20375;-59
2021/06/15 02:10:43;;;;;;;11.45;7.07;;;;;;;;;;1497036;39;20031;-59
2021/06/15 02:11:46;;;;;;;8.75;6.93;;;;;;;;;;1497180;39;20115;-59
2021/06/15 02:12:51;;;;;;;11.70;7.25;;;;;;;;;;1497131;39;20030;-59
2021/06/15 02:13:55;;;;;;;11.20;7.50;;;;;;;;;;1497123;39;20039;-59
2021/06/15 02:14:58;;;;;;;11.10;7.20;;;;;;;;;;1496988;39;20107;-59
2021/06/15 02:16:02;;;;;;;11.00;7.63;;;;;;;;;;1496804;39;20396;-59
2021/06/15 02:17:06;;;;;;;11.77;7.95;;;;;;;;;;1496850;39;20034;-59
2021/06/15 02:18:09;;;;;;;10.27;6.95;;;;;;;;;;1496835;39;20032;-59
2021/06/15 02:19:10;;;;;;;9.70;7.32;;;;;;;;;;1496798;39;20032;-59
2021/06/15 02:20:14;;;;;;;11.60;7.63;;;;;;;;;;1496824;39;20115;-59
2021/06/15 02:21:16;;;;;;;9.65;7.35;;;;;;;;;;1496980;39;20039;-59
2021/06/15 02:22:20;;;;;;;10.82;7.32;;;;;;;;;;1497720;39;20039;-59
2021/06/15 02:23:23;;;;;;;10.18;7.00;;;;;;;;;;1497680;39;20023;-59
2021/06/15 02:24:31;;;;;;;10.85;7.20;;;;;;;;;;1497506;39;20470;-59
2021/06/15 02:25:35;;;;;;;11.57;7.10;;;;;;;;;;1497464;39;20031;-59
2021/06/15 02:26:38;;;;;;;11.93;7.00;;;;;;;;;;1497603;39;20467;-59
2021/06/15 02:27:40;;;;;;;12.82;7.53;;;;;;;;;;1497821;39;20067;-59
2021/06/15 02:28:43;;;;;;;13.98;7.72;;;;;;;;;;1497594;39;20293;-59
2021/06/15 02:29:45;;;;;;;10.30;7.30;;;;;;;;;;1497617;39;20027;-59
2021/06/15 02:30:48;;;;;;;8.82;7.10;;;;;;;;;;1497678;39;20099;-59
2021/06/15 02:31:54;;;;;;;12.95;7.53;;;;;;;;;;1497414;39;20088;-59
2021/06/15 02:33:01;;;;;;;11.25;6.93;;;;;;;;;;1497491;39;20023;-59
2021/06/15 02:34:07;;;;;;;9.00;6.40;;;;;;;;;;1497475;39;20283;-59
2021/06/15 02:35:12;;;;;;;11.70;7.25;;;;;;;;;;1497621;39;20032;-59
2021/06/15 02:36:17;;;;;;;14.63;7.57;;;;;;;;;;1497438;39;20023;-59
2021/06/15 02:37:25;;;;;;;11.18;6.63;;;;;;;;;;1497619;39;20116;-59
2021/06/15 02:38:35;;;;;;;11.25;7.07;;;;;;;;;;1497598;39;20032;-59
2021/06/15 02:39:38;;;;;;;9.98;7.18;;;;;;;;;;1497531;39;20089;-59
2021/06/15 02:40:40;;;;;;;13.40;7.20;;;;;;;;;;1497433;39;20394;-59
2021/06/15 02:41:43;;;;;;;10.32;7.43;;;;;;;;;;1497524;39;20386;-59
2021/06/15 02:42:45;;;;;;;11.23;6.80;;;;;;;;;;1497364;39;20038;-59
2021/06/15 02:43:50;;;;;;;11.65;7.43;;;;;;;;;;1497573;39;20027;-59
2021/06/15 02:44:56;;;;;;;12.85;7.85;;;;;;;;;;1497709;39;20043;-59
2021/06/15 02:45:59;;;;;;;10.60;7.47;;;;;;;;;;1497394;39;20038;-59
2021/06/15 02:47:02;;;;;;;12.13;7.82;;;;;;;;;;1497590;39;20023;-59
2021/06/15 02:48:07;;;;;;;11.45;7.25;;;;;;;;;;1497429;39;20035;-59
2021/06/15 02:49:12;;;;;;;11.50;7.13;;;;;;;;;;1497443;39;20058;-59
2021/06/15 02:50:16;;;;;;;12.93;7.60;;;;;;;;;;1497920;39;20036;-59
2021/06/15 02:51:19;;;;;;;11.98;7.68;;;;;;;;;;1497394;39;20032;-59
2021/06/15 02:52:33;;;;;;;11.70;7.38;;;;;;;;;;1497653;39;20104;-59
2021/06/15 02:53:39;;;;;;;11.90;7.93;;;;;;;;;;1497624;39;20024;-59
2021/06/15 02:54:44;;;;;;;12.07;7.70;;;;;;;;;;1497529;39;20035;-59
2021/06/15 02:55:53;;;;;;;11.52;7.82;;;;;;;;;;1497556;39;20028;-59
2021/06/15 02:56:58;;;;;;;10.68;7.15;;;;;;;;;;1497478;39;20050;-59
2021/06/15 02:57:59;;;;;;;12.68;7.40;;;;;;;;;;1492615;39;20034;-59
2021/06/15 02:59:01;;;;;;;12.25;7.47;;;;;;;;;;1492674;39;20358;-59
2021/06/15 03:00:06;;;;;;;10.85;7.57;;;;;;;;;;1497519;39;20031;-59
2021/06/15 03:01:08;;;;;;;10.63;7.63;;;;;;;;;;1497378;39;20288;-59
2021/06/15 03:02:09;;;;;;;11.23;7.15;;;;;;;;;;1497378;39;20028;-59
2021/06/15 03:03:11;;;;;;;10.45;7.15;;;;;;;;;;1497547;39;20088;-59
2021/06/15 03:04:11;;;;;;;11.18;7.15;;;;;;;;;;1497352;39;20028;-59
2021/06/15 03:05:16;;;;;;;9.57;7.68;;;;;;;;;;1497618;39;20031;-59
2021/06/15 03:06:17;;;;;;;9.80;7.28;;;;;;;;;;1497796;39;20035;-56
2021/06/15 03:07:19;;;;;;;12.48;7.65;;;;;;;;;;1497446;39;20351;-56
2021/06/15 03:08:20;;;;;;;11.98;7.97;;;;;;;;;;1497541;39;20058;-56
2021/06/15 03:09:22;;;;;;;11.98;7.55;;;;;;;;;;1497541;39;20286;-56
2021/06/15 03:10:24;;;;;;;11.27;7.03;;;;;;;;;;1497343;39;20295;-56
2021/06/15 03:11:28;;;;;;;12.45;7.38;;;;;;;;;;1497642;39;20030;-56
2021/06/15 03:12:35;;;;;;;11.63;7.57;;;;;;;;;;1497316;39;20310;-56
2021/06/15 03:13:41;;;;;;;9.95;6.97;;;;;;;;;;1497619;39;20034;-56
2021/06/15 03:14:46;;;;;;;12.32;7.30;;;;;;;;;;1497419;39;20027;-56
2021/06/15 03:15:52;;;;;;;10.27;6.82;;;;;;;;;;1497537;39;20028;-56
2021/06/15 03:16:56;;;;;;;10.63;7.43;;;;;;;;;;1497339;39;20027;-56
2021/06/15 03:18:04;;;;;;;10.48;7.45;;;;;;;;;;1497625;39;20067;-56
2021/06/15 03:19:07;;;;;;;11.60;8.10;;;;;;;;;;1497544;39;20019;-56
2021/06/15 03:20:11;;;;;;;11.07;8.02;;;;;;;;;;1497416;39;20303;-56
2021/06/15 03:21:17;;;;;;;11.63;7.90;;;;;;;;;;1497380;39;20032;-55
2021/06/15 03:22:22;;;;;;;12.73;8.57;;;;;;;;;;1497399;39;20341;-56
2021/06/15 03:23:42;;;;;;;13.27;8.68;;;;;;;;;;1497251;39;20035;-56
2021/06/15 03:24:46;;;;;;;12.07;8.05;;;;;;;;;;1497507;39;20061;-56
2021/06/15 03:25:49;;;;;;;12.50;8.23;;;;;;;;;;1497563;39;20031;-56
2021/06/15 03:26:58;;;;;;;11.27;7.20;;;;;;;;;;1497370;39;20303;-56
2021/06/15 03:28:01;;;;;;;10.77;7.50;;;;;;;;;;1497356;39;20030;-56
2021/06/15 03:29:04;;;;;;;10.85;7.13;;;;;;;;;;1497608;39;20071;-56
2021/06/15 03:30:08;;;;;;;12.55;7.43;;;;;;;;;;1497447;39;20027;-56
2021/06/15 03:31:14;;;;;;;11.57;6.82;;;;;;;;;;1497411;39;20471;-57
2021/06/15 03:32:16;;;;;;;12.48;7.28;;;;;;;;;;1497561;39;20035;-56
2021/06/15 03:33:20;;;;;;;9.52;7.18;;;;;;;;;;1496847;39;20035;-56
2021/06/15 03:34:25;;;;;;;10.13;7.22;;;;;;;;;;1497249;39;20028;-56
2021/06/15 03:35:28;;;;;;;11.00;7.13;;;;;;;;;;1497657;39;20031;-56
2021/06/15 03:36:31;;;;;;;12.88;7.30;;;;;;;;;;1497260;39;20027;-56
2021/06/15 03:37:34;;;;;;;10.30;7.40;;;;;;;;;;1497438;39;20028;-56
2021/06/15 03:38:37;;;;;;;9.25;7.22;;;;;;;;;;1497231;39;20035;-56
2021/06/15 03:39:39;;;;;;;11.50;7.78;;;;;;;;;;1497555;39;20096;-56
2021/06/15 03:40:43;;;;;;;11.93;8.10;;;;;;;;;;1497322;39;20030;-56
2021/06/15 03:41:44;;;;;;;10.55;7.35;;;;;;;;;;1497264;39;20039;-56
2021/06/15 03:42:47;;;;;;;10.63;7.57;;;;;;;;;;1497229;39;20027;-56
2021/06/15 03:43:52;;;;;;;11.43;7.95;;;;;;;;;;1497413;39;20130;-56
2021/06/15 03:44:57;;;;;;;12.13;7.65;;;;;;;;;;1497582;39;20031;-56
2021/06/15 03:46:03;;;;;;;11.18;7.70;;;;;;;;;;1497360;39;20027;-56
2021/06/15 03:47:07;;;;;;;11.13;8.00;;;;;;;;;;1497426;39;20032;-56
2021/06/15 03:48:08;;;;;;;10.68;7.68;;;;;;;;;;1497211;39;20314;-56
2021/06/15 03:49:14;;;;;;;11.48;7.78;;;;;;;;;;1497579;39;20036;-56
2021/06/15 03:50:17;;;;;;;11.27;7.88;;;;;;;;;;1497243;39;20302;-55
2021/06/15 03:51:24;;;;;;;14.98;7.68;;;;;;;;;;1497498;39;20100;-56
2021/06/15 03:52:28;;;;;;;11.48;7.50;;;;;;;;;;1497403;39;20027;-56
2021/06/15 03:53:32;;;;;;;12.65;8.23;;;;;;;;;;1497577;39;20027;-56
2021/06/15 03:54:34;;;;;;;13.95;8.18;;;;;;;;;;1497411;39;20035;-56
2021/06/15 03:55:37;;;;;;;13.80;8.27;;;;;;;;;;1497396;39;20097;-56
2021/06/15 03:56:41;;;;;;;12.95;8.25;;;;;;;;;;1497512;39;20034;-56
2021/06/15 03:57:46;;;;;;;11.07;8.02;;;;;;;;;;1497239;39;20290;-56
2021/06/15 03:58:49;;;;;;;12.32;7.30;;;;;;;;;;1497263;39;20405;-56
2021/06/15 03:59:51;;;;;;;10.85;7.53;;;;;;;;;;1497373;39;20111;-56
2021/06/15 04:00:52;;;;;;;12.80;7.38;;;;;;;;;;1497265;39;20023;-56
2021/06/15 04:01:56;;;;;;;11.65;7.57;;;;;;;;;;1497586;39;20039;-56
2021/06/15 04:03:01;;;;;;;11.48;7.78;;;;;;;;;;1497204;39;20066;-56
2021/06/15 04:04:05;;;;;;;11.38;7.30;;;;;;;;;;1497385;39;20030;-56
2021/06/15 04:05:07;;;;;;;10.75;7.60;;;;;;;;;;1497193;39;20026;-56
2021/06/15 04:06:11;;;;;;;12.88;7.97;;;;;;;;;;1497267;39;20039;-56
2021/06/15 04:07:17;;;;;;;13.93;8.13;;;;;;;;;;1497412;39;20019;-56
2021/06/15 04:08:21;;;;;;;10.45;7.32;;;;;;;;;;1497431;39;20132;-59
2021/06/15 04:09:26;;;;;;;13.20;7.93;;;;;;;;;;1497268;39;20394;-58
2021/06/15 04:10:29;;;;;;;10.23;7.72;;;;;;;;;;1497476;39;20034;-58
2021/06/15 04:11:34;;;;;;;11.05;7.72;;;;;;;;;;1497364;39;20057;-58
2021/06/15 04:12:36;;;;;;;13.90;8.20;;;;;;;;;;1497488;39;20023;-58
2021/06/15 04:13:41;;;;;;;11.63;7.57;;;;;;;;;;1497401;39;20031;-58
2021/06/15 04:14:44;;;;;;;10.25;7.43;;;;;;;;;;1497604;39;20031;-58
2021/06/15 04:15:47;;;;;;;12.05;7.82;;;;;;;;;;1497277;39;20303;-58
2021/06/15 04:16:50;;;;;;;12.13;7.65;;;;;;;;;;1497357;39;20032;-58
2021/06/15 04:17:51;;;;;;;11.80;7.53;;;;;;;;;;1497126;39;20032;-58
2021/06/15 04:18:59;;;;;;;12.48;7.65;;;;;;;;;;1497495;39;20104;-58
2021/06/15 04:20:01;;;;;;;10.07;7.72;;;;;;;;;;1497420;39;20042;-58
2021/06/15 04:21:05;;;;;;;11.65;7.53;;;;;;;;;;1497234;39;20034;-58
2021/06/15 04:22:10;;;;;;;11.13;7.68;;;;;;;;;;1497377;39;20027;-58
2021/06/15 04:23:18;;;;;;;14.20;8.15;;;;;;;;;;1497536;39;20027;-58
2021/06/15 04:24:23;;;;;;;11.32;7.18;;;;;;;;;;1497188;39;20052;-58
2021/06/15 04:25:31;;;;;;;11.48;8.18;;;;;;;;;;1497271;39;20034;-58
2021/06/15 04:26:34;;;;;;;14.30;7.93;;;;;;;;;;1497292;39;20023;-58
2021/06/15 04:27:35;;;;;;;13.95;8.15;;;;;;;;;;1497431;39;20031;-58
2021/06/15 04:28:38;;;;;;;10.15;7.03;;;;;;;;;;1497321;39;20031;-58
2021/06/15 04:29:40;;;;;;;11.02;7.55;;;;;;;;;;1497328;39;20027;-58
2021/06/15 04:30:41;;;;;;;14.45;7.80;;;;;;;;;;1497343;39;20028;-58
2021/06/15 04:31:44;;;;;;;10.35;7.60;;;;;;;;;;1497256;39;20325;-58
2021/06/15 04:32:50;;;;;;;11.95;7.95;;;;;;;;;;1497398;39;20030;-58
2021/06/15 04:33:52;;;;;;;11.63;7.47;;;;;;;;;;1497300;39;20049;-58
2021/06/15 04:34:58;;;;;;;13.02;7.80;;;;;;;;;;1497384;39;20027;-58
2021/06/15 04:36:05;;;;;;;10.45;7.28;;;;;;;;;;1497307;39;20034;-58
2021/06/15 04:37:09;;;;;;;10.77;7.22;;;;;;;;;;1497513;39;20034;-58
2021/06/15 04:38:14;;;;;;;9.95;7.10;;;;;;;;;;1497150;39;20031;-58
2021/06/15 04:39:19;;;;;;;11.82;7.38;;;;;;;;;;1497428;39;20024;-58
2021/06/15 04:40:27;;;;;;;11.27;7.10;;;;;;;;;;1497216;39;20067;-59
2021/06/15 04:41:32;;;;;;;12.27;7.25;;;;;;;;;;1497377;39;20032;-59
2021/06/15 04:42:42;;;;;;;11.82;7.20;;;;;;;;;;1497245;39;20023;-59
2021/06/15 04:43:48;;;;;;;11.80;7.20;;;;;;;;;;1497060;39;20119;-59
2021/06/15 04:44:52;;;;;;;9.63;6.85;;;;;;;;;;1497143;39;20027;-59
2021/06/15 04:45:58;;;;;;;9.73;7.10;;;;;;;;;;1497180;39;20036;-58
2021/06/15 04:47:06;;;;;;;10.60;6.88;;;;;;;;;;1497205;39;20031;-59
2021/06/15 04:48:10;;;;;;;12.00;7.03;;;;;;;;;;1497061;39;20487;-58
2021/06/15 04:49:15;;;;;;;11.10;7.45;;;;;;;;;;1497199;39;20027;-58
2021/06/15 04:50:24;;;;;;;9.57;7.00;;;;;;;;;;1497216;39;20031;-59
2021/06/15 04:51:26;;;;;;;11.27;7.15;;;;;;;;;;1497164;39;20311;-58
2021/06/15 04:52:29;;;;;;;8.57;6.45;;;;;;;;;;1497257;39;20024;-59
2021/06/15 04:53:36;;;;;;;8.98;7.22;;;;;;;;;;1497228;39;20030;-58
2021/06/15 04:54:40;;;;;;;11.65;6.72;;;;;;;;;;1497126;39;20306;-58
2021/06/15 04:55:43;;;;;;;9.13;6.70;;;;;;;;;;1497193;39;20031;-59
2021/06/15 04:56:46;;;;;;;10.70;7.07;;;;;;;;;;1497254;39;20038;-59
2021/06/15 04:57:48;;;;;;;10.85;7.00;;;;;;;;;;1497110;39;20027;-58
2021/06/15 04:58:49;;;;;;;11.65;7.32;;;;;;;;;;1497359;39;20031;-59
2021/06/15 04:59:53;;;;;;;11.55;7.00;;;;;;;;;;1497279;39;20380;-58
2021/06/15 05:00:54;;;;;;;11.77;7.18;;;;;;;;;;1497074;39;20023;-59
2021/06/15 05:01:57;;;;;;;12.93;7.97;;;;;;;;;;1497055;39;20317;-59
2021/06/15 05:02:59;;;;;;;11.27;7.60;;;;;;;;;;1497082;39;20038;-59
2021/06/15 05:04:01;;;;;;;10.90;6.97;;;;;;;;;;1497036;39;20034;-59
2021/06/15 05:05:03;;;;;;;9.52;7.10;;;;;;;;;;1497240;39;20027;-59
2021/06/15 05:06:08;;;;;;;9.77;7.32;;;;;;;;;;1497068;39;20027;-58
2021/06/15 05:07:09;;;;;;;12.55;7.55;;;;;;;;;;1497225;39;20027;-58
2021/06/15 05:08:14;;;;;;;11.60;7.43;;;;;;;;;;1497204;39;20039;-59
2021/06/15 05:09:17;;;;;;;12.68;7.63;;;;;;;;;;1497237;39;20038;-59
2021/06/15 05:10:20;;;;;;;12.10;7.50;;;;;;;;;;1497145;39;20027;-59
2021/06/15 05:11:22;;;;;;;10.80;7.05;;;;;;;;;;1497079;39;20379;-59
2021/06/15 05:12:25;;;;;;;11.15;7.30;;;;;;;;;;1497107;39;20414;-59
2021/06/15 05:13:27;;;;;;;10.75;7.88;;;;;;;;;;1497122;39;20031;-59
2021/06/15 05:14:33;;;;;;;13.05;7.78;;;;;;;;;;1497018;39;20029;-59
2021/06/15 05:15:34;;;;;;;11.63;7.63;;;;;;;;;;1497039;39;20035;-59
2021/06/15 05:16:37;;;;;;;13.38;8.20;;;;;;;;;;1497214;39;20027;-58
2021/06/15 05:17:40;;;;;;;12.02;7.15;;;;;;;;;;1497215;39;20024;-59
2021/06/15 05:18:42;;;;;;;12.80;8.00;;;;;;;;;;1497265;39;20032;-59
2021/06/15 05:19:43;;;;;;;12.63;8.60;;;;;;;;;;1497339;39;20039;-59
2021/06/15 05:20:45;;;;;;;14.45;9.30;;;;;;;;;;1497183;39;20039;-59
2021/06/15 05:21:54;;;;;;;13.52;9.43;;;;;;;;;;1497284;39;20028;-58
2021/06/15 05:23:01;;;;;;;13.50;9.45;;;;;;;;;;1497153;39;20057;-59
2021/06/15 05:24:05;;;;;;;12.45;8.15;;;;;;;;;;1496987;39;20306;-59
2021/06/15 05:25:10;;;;;;;16.20;9.63;;;;;;;;;;1497302;39;20028;-59
2021/06/15 05:26:12;;;;;;;13.88;9.20;;;;;;;;;;1497243;39;20039;-59
2021/06/15 05:27:15;;;;;;;13.35;9.40;;;;;;;;;;1497044;39;20466;-59
2021/06/15 05:28:16;;;;;;;13.68;10.10;;;;;;;;;;1497134;39;20039;-60
2021/06/15 05:29:18;;;;;;;15.57;10.75;;;;;;;;;;1497194;39;20088;-60
2021/06/15 05:30:19;;;;;;;17.40;11.35;;;;;;;;;;1497190;39;20144;-59
2021/06/15 05:31:21;;;;;;;15.63;11.20;;;;;;;;;;1497076;39;20060;-59
2021/06/15 05:32:23;;;;;;;15.85;11.30;;;;;;;;;;1496999;39;20390;-59
2021/06/15 05:33:24;;;;;;;17.50;10.77;;;;;;;;;;1497034;39;20028;-59
2021/06/15 05:34:25;;;;;;;17.23;11.40;;;;;;;;;;1496955;39;20023;-60
2021/06/15 05:35:27;;;;;;;16.83;11.23;;;;;;;;;;1492357;39;20050;-59
2021/06/15 05:36:28;;;;;;;14.93;10.10;;;;;;;;;;1492307;39;20023;-59
2021/06/15 05:37:31;;;;;;;13.40;9.50;;;;;;;;;;1497161;39;20038;-59
2021/06/15 05:38:32;;;;;;;13.98;9.68;;;;;;;;;;1496959;39;20042;-59
2021/06/15 05:39:35;;;;;;;12.10;9.60;;;;;;;;;;1497186;39;20038;-59
2021/06/15 05:40:36;;;;;;;18.17;10.93;;;;;;;;;;1497245;39;20028;-59
2021/06/15 05:41:38;;;;;;;13.65;10.48;;;;;;;;;;1497287;39;20040;-59
2021/06/15 05:42:40;;;;;;;17.85;9.82;;;;;;;;;;1496956;39;20402;-59
2021/06/15 05:43:41;;;;;;;15.52;10.23;;;;;;;;;;1497113;39;20031;-59
2021/06/15 05:44:42;;;;;;;14.85;10.27;;;;;;;;;;1497012;39;20398;-61
2021/06/15 05:45:44;;;;;;;14.90;10.38;;;;;;;;;;1496982;39;20028;-59
2021/06/15 05:46:45;;;;;;;16.17;9.68;;;;;;;;;;1497027;39;20290;-60
2021/06/15 05:47:47;;;;;;;15.48;10.10;;;;;;;;;;1497147;39;20039;-61
2021/06/15 05:48:48;;;;;;;15.95;10.23;;;;;;;;;;1496936;39;20027;-59
2021/06/15 05:49:50;;;;;;;17.70;9.80;;;;;;;;;;1496906;39;20023;-61
2021/06/15 05:50:50;;;;;;;13.73;9.85;;;;;;;;;;1496981;39;20024;-59
2021/06/15 05:51:58;;;;;;;18.10;10.40;;;;;;;;;;1496942;39;20028;-61
2021/06/15 05:53:00;;;;;;;14.10;9.93;;;;;;;;;;1497111;39;20034;-61
2021/06/15 05:54:03;;;;;;;13.23;9.55;;;;;;;;;;1497265;39;20039;-60
2021/06/15 05:55:05;;;;;;;15.13;9.85;;;;;;;;;;1492177;39;20449;-59
2021/06/15 05:56:07;;;;;;;13.93;9.35;;;;;;;;;;1492436;39;20039;-59
2021/06/15 05:57:08;;;;;;;13.55;9.90;;;;;;;;;;1497562;39;20035;-61
2021/06/15 05:58:10;;;;;;;16.23;10.00;;;;;;;;;;1497816;39;20031;-61
2021/06/15 05:59:11;;;;;;;13.52;9.80;;;;;;;;;;1497585;39;20399;-59
2021/06/15 06:00:14;;;;;;;12.82;9.00;;;;;;;;;;1497587;39;20043;-59
2021/06/15 06:01:15;;;;;;;15.38;9.85;;;;;;;;;;1497790;39;20078;-60
2021/06/15 06:02:16;;;;;;;11.38;8.32;;;;;;;;;;1497737;39;20128;-59
2021/06/15 06:03:22;;;;;;;12.52;8.70;;;;;;;;;;1497770;39;20023;-61
2021/06/15 06:04:26;;;;;;;13.90;8.88;;;;;;;;;;1497640;39;20023;-59
2021/06/15 06:08:07;;;;;;;11.05;8.25;;;;;;;;;;1497570;39;20127;-60
2021/06/15 06:09:09;;;;;;;12.82;8.38;;;;;;;;;;1497610;39;20027;-59
2021/06/15 06:10:12;;;;;;;11.80;8.20;;;;;;;;;;1492957;39;20028;-61
2021/06/15 06:11:14;;;;;;;13.32;8.35;;;;;;;;;;1493124;39;20038;-61
2021/06/15 06:12:14;;;;;;;11.63;8.43;;;;;;;;;;1497671;39;20023;-61
2021/06/15 06:13:16;;;;;;;15.60;8.88;;;;;;;;;;1497760;39;20308;-61
2021/06/15 06:14:17;;;;;;;16.38;9.52;;;;;;;;;;1497678;39;20032;-59
2021/06/15 06:15:19;;;;;;;13.38;8.50;;;;;;;;;;1497581;39;20032;-59
2021/06/15 06:16:20;;;;;;;13.73;9.27;;;;;;;;;;1497606;39;20026;-61
2021/06/15 06:17:22;;;;;;;13.68;9.13;;;;;;;;;;1497480;39;20075;-62
2021/06/15 06:18:23;;;;;;;14.80;9.20;;;;;;;;;;1497410;39;20031;-59
2021/06/15 06:19:25;;;;;;;14.20;8.55;;;;;;;;;;1497810;39;20031;-61